createdAt,value
2022-07-29T00:00:24.962Z,100147.16
2022-07-29T00:02:54.093Z,100145.50
2022-07-29T00:05:22.358Z,100147.72
2022-07-29T00:07:50.259Z,100140.91
2022-07-29T00:10:18.335Z,100146.34
2022-07-29T00:12:47.810Z,100143.56
2022-07-29T00:15:16.406Z,100148.84
2022-07-29T00:17:44.510Z,100146.78
2022-07-29T00:20:12.676Z,100140.34
2022-07-29T00:22:41.332Z,100138.41
2022-07-29T00:25:10.037Z,100134.22
2022-07-29T00:27:38.752Z,100133.13
2022-07-29T00:30:09.698Z,100131.31
2022-07-29T00:32:38.046Z,100128.25
2022-07-29T00:35:27.162Z,100115.50
2022-07-29T00:37:55.046Z,100114.97
2022-07-29T00:40:23.600Z,100113.22
2022-07-29T00:42:53.087Z,100115.53
2022-07-29T00:45:22.917Z,100112.03
2022-07-29T00:47:51.176Z,100106.91
2022-07-29T00:50:19.983Z,100110.94
2022-07-29T00:52:48.286Z,100111.88
2022-07-29T00:55:17.867Z,100101.59
2022-07-29T00:57:46.828Z,100097.84
2022-07-29T01:00:18.357Z,100097.94
2022-07-29T01:02:49.434Z,100090.72
2022-07-29T01:05:20.196Z,100083.41
2022-07-29T01:07:50.378Z,100086.06
2022-07-29T01:10:21.985Z,100089.13
2022-07-29T01:12:51.573Z,100088.16
2022-07-29T01:15:19.712Z,100084.78
2022-07-29T01:17:56.286Z,100087.72
2022-07-29T01:20:32.995Z,100080.13
2022-07-29T01:23:13.189Z,100076.97
2022-07-29T01:25:57.228Z,100077.66
2022-07-29T01:28:45.952Z,100085.63
2022-07-29T01:31:23.728Z,100092.31
2022-07-29T01:33:59.660Z,100083.94
2022-07-29T01:36:34.422Z,100080.63
2022-07-29T01:39:10.675Z,100084.38
2022-07-29T01:41:42.197Z,100076.03
2022-07-29T01:44:17.673Z,100068.78
2022-07-29T01:46:53.629Z,100060.00
2022-07-29T01:49:26.261Z,100055.81
2022-07-29T01:51:59.632Z,100058.34
2022-07-29T01:54:34.177Z,100053.03
2022-07-29T01:57:03.920Z,100058.06
2022-07-29T01:59:35.655Z,100061.00
2022-07-29T02:02:05.107Z,100054.97
2022-07-29T02:04:36.030Z,100053.19
2022-07-29T02:07:07.990Z,100061.22
2022-07-29T02:09:39.022Z,100053.69
2022-07-29T02:12:09.299Z,100053.00
2022-07-29T02:14:47.092Z,100053.97
2022-07-29T02:17:19.473Z,100045.19
2022-07-29T02:19:49.049Z,100051.41
2022-07-29T02:22:20.549Z,100062.16
2022-07-29T02:24:51.407Z,100053.25
2022-07-29T02:27:22.027Z,100059.34
2022-07-29T02:29:53.191Z,100061.72
2022-07-29T02:32:23.594Z,100062.94
2022-07-29T02:34:54.260Z,100061.31
2022-07-29T02:37:23.350Z,100058.63
2022-07-29T02:39:54.339Z,100057.50
2022-07-29T02:42:25.397Z,100055.97
2022-07-29T02:44:55.091Z,100063.66
2022-07-29T02:47:26.827Z,100065.31
2022-07-29T02:49:59.234Z,100055.84
2022-07-29T02:52:33.415Z,100056.72
2022-07-29T02:55:05.551Z,100057.91
2022-07-29T02:57:54.399Z,100055.69
2022-07-29T03:00:28.849Z,100052.91
2022-07-29T03:03:00.561Z,100047.81
2022-07-29T03:05:29.559Z,100048.63
2022-07-29T03:08:00.661Z,100041.94
2022-07-29T03:10:29.709Z,100047.47
2022-07-29T03:12:59.166Z,100048.03
2022-07-29T03:15:29.354Z,100048.16
2022-07-29T03:17:58.080Z,100049.75
2022-07-29T03:20:26.374Z,100054.25
2022-07-29T03:22:54.301Z,100048.44
2022-07-29T03:25:22.352Z,100050.84
2022-07-29T03:27:50.930Z,100059.81
2022-07-29T03:30:21.684Z,100059.00
2022-07-29T03:32:53.134Z,100062.03
2022-07-29T03:35:21.344Z,100062.56
2022-07-29T03:37:49.349Z,100058.63
2022-07-29T03:40:21.864Z,100058.31
2022-07-29T03:42:54.165Z,100058.44
2022-07-29T03:45:24.016Z,100063.34
2022-07-29T03:48:00.970Z,100061.66
2022-07-29T03:50:30.703Z,100060.97
2022-07-29T03:53:00.203Z,100065.09
2022-07-29T03:55:30.310Z,100057.09
2022-07-29T03:57:59.673Z,100061.34
2022-07-29T04:00:29.198Z,100066.69
2022-07-29T04:02:58.949Z,100061.06
2022-07-29T04:05:26.969Z,100065.03
2022-07-29T04:07:54.897Z,100067.72
2022-07-29T04:10:30.109Z,100061.91
2022-07-29T04:12:58.731Z,100065.03
2022-07-29T04:15:26.809Z,100061.53
2022-07-29T04:18:01.330Z,100071.25
2022-07-29T04:20:29.365Z,100073.31
2022-07-29T04:22:57.366Z,100070.78
2022-07-29T04:25:25.474Z,100066.81
2022-07-29T04:28:02.232Z,100075.75
2022-07-29T04:30:30.792Z,100074.34
2022-07-29T04:33:01.673Z,100079.44
2022-07-29T04:35:29.737Z,100071.63
2022-07-29T04:37:57.811Z,100064.44
2022-07-29T04:40:25.788Z,100072.84
2022-07-29T04:42:54.024Z,100070.75
2022-07-29T04:45:22.855Z,100079.81
2022-07-29T04:47:51.025Z,100071.31
2022-07-29T04:50:20.351Z,100066.25
2022-07-29T04:52:48.223Z,100066.81
2022-07-29T04:55:16.208Z,100075.69
2022-07-29T04:57:44.527Z,100072.34
2022-07-29T05:00:13.294Z,100078.13
2022-07-29T05:02:41.437Z,100075.22
2022-07-29T05:05:10.286Z,100074.47
2022-07-29T05:07:39.819Z,100080.88
2022-07-29T05:10:08.507Z,100078.97
2022-07-29T05:12:36.341Z,100080.41
2022-07-29T05:15:05.251Z,100083.19
2022-07-29T05:17:33.136Z,100088.97
2022-07-29T05:20:01.091Z,100083.88
2022-07-29T05:22:29.216Z,100085.44
2022-07-29T05:24:58.610Z,100088.31
2022-07-29T05:27:26.859Z,100086.41
2022-07-29T05:29:54.634Z,100085.69
2022-07-29T05:32:22.572Z,100088.06
2022-07-29T05:34:51.802Z,100091.06
2022-07-29T05:37:21.012Z,100087.22
2022-07-29T05:39:56.827Z,100088.75
2022-07-29T05:42:27.652Z,100096.91
2022-07-29T05:44:55.902Z,100097.19
2022-07-29T05:47:24.447Z,100096.28
2022-07-29T05:49:52.537Z,100100.28
2022-07-29T05:52:20.876Z,100103.63
2022-07-29T05:54:49.353Z,100101.44
2022-07-29T05:57:18.226Z,100106.16
2022-07-29T05:59:48.396Z,100102.00
2022-07-29T06:02:17.249Z,100102.84
2022-07-29T06:04:45.890Z,100113.44
2022-07-29T06:07:14.085Z,100115.09
2022-07-29T06:09:42.477Z,100113.41
2022-07-29T06:12:11.118Z,100121.50
2022-07-29T06:14:39.766Z,100115.72
2022-07-29T06:17:09.947Z,100119.88
2022-07-29T06:19:38.480Z,100114.59
2022-07-29T06:22:06.762Z,100115.00
2022-07-29T06:24:34.812Z,100110.53
2022-07-29T06:27:02.842Z,100116.78
2022-07-29T06:29:30.651Z,100117.63
2022-07-29T06:31:59.011Z,100115.38
2022-07-29T06:34:28.390Z,100117.19
2022-07-29T06:36:56.325Z,100125.56
2022-07-29T06:39:24.279Z,100128.38
2022-07-29T06:41:52.562Z,100116.41
2022-07-29T06:44:26.472Z,100120.56
2022-07-29T06:46:55.701Z,100124.88
2022-07-29T06:49:24.531Z,100116.91
2022-07-29T06:51:53.996Z,100117.91
2022-07-29T06:54:22.683Z,100119.00
2022-07-29T06:56:50.720Z,100124.16
2022-07-29T06:59:18.932Z,100127.47
2022-07-29T07:01:48.250Z,100133.06
2022-07-29T07:04:16.622Z,100132.50
2022-07-29T07:06:46.502Z,100145.47
2022-07-29T07:09:16.622Z,100144.50
2022-07-29T07:11:44.612Z,100141.72
2022-07-29T07:14:17.845Z,100147.53
2022-07-29T07:16:50.284Z,100149.03
2022-07-29T07:19:21.302Z,100158.75
2022-07-29T07:21:49.655Z,100147.81
2022-07-29T07:24:19.473Z,100151.56
2022-07-29T07:26:47.661Z,100161.09
2022-07-29T07:29:15.612Z,100152.94
2022-07-29T07:31:43.739Z,100152.78
2022-07-29T07:34:11.884Z,100153.03
2022-07-29T07:36:40.132Z,100155.06
2022-07-29T07:39:08.105Z,100152.56
2022-07-29T07:41:37.789Z,100152.63
2022-07-29T07:44:07.006Z,100148.16
2022-07-29T07:46:35.244Z,100144.31
2022-07-29T07:49:04.120Z,100147.72
2022-07-29T07:51:32.069Z,100138.88
2022-07-29T07:54:00.501Z,100142.81
2022-07-29T07:56:35.171Z,100137.25
2022-07-29T07:59:05.075Z,100141.59
2022-07-29T08:01:54.662Z,100136.16
2022-07-29T08:04:27.095Z,100130.69
2022-07-29T08:06:56.729Z,100145.25
2022-07-29T08:09:29.640Z,100129.25
2022-07-29T08:11:58.551Z,100142.09
2022-07-29T08:14:27.947Z,100136.53
2022-07-29T08:16:56.268Z,100141.13
2022-07-29T08:19:24.562Z,100138.06
2022-07-29T08:21:56.644Z,100143.97
2022-07-29T08:24:42.231Z,100149.09
2022-07-29T08:27:27.239Z,100145.78
2022-07-29T08:30:00.957Z,100144.03
2022-07-29T08:32:52.201Z,100145.63
2022-07-29T08:35:17.463Z,100152.81
2022-07-29T08:37:46.936Z,100143.66
2022-07-29T08:40:16.129Z,100150.00
2022-07-29T08:42:44.270Z,100149.81
2022-07-29T08:45:14.594Z,100147.66
2022-07-29T08:47:42.931Z,100148.63
2022-07-29T08:50:12.294Z,100155.66
2022-07-29T08:52:42.001Z,100150.97
2022-07-29T08:55:11.979Z,100154.69
2022-07-29T08:57:50.902Z,100153.69
2022-07-29T09:00:25.561Z,100162.00
2022-07-29T09:02:59.744Z,100157.34
2022-07-29T09:05:29.093Z,100148.16
2022-07-29T09:07:57.539Z,100156.16
2022-07-29T09:10:25.534Z,100150.00
2022-07-29T09:12:53.521Z,100152.50
2022-07-29T09:15:23.353Z,100152.34
2022-07-29T09:17:56.919Z,100154.16
2022-07-29T09:20:25.314Z,100152.44
2022-07-29T09:22:54.449Z,100149.06
2022-07-29T09:25:35.911Z,100149.38
2022-07-29T09:28:11.325Z,100143.72
2022-07-29T09:30:52.433Z,100152.03
2022-07-29T09:33:20.892Z,100143.03
2022-07-29T09:36:01.807Z,100149.56
2022-07-29T09:38:30.536Z,100145.56
2022-07-29T09:40:59.928Z,100147.78
2022-07-29T09:43:34.347Z,100143.28
2022-07-29T09:46:14.343Z,100142.19
2022-07-29T09:48:42.638Z,100142.66
2022-07-29T09:51:24.237Z,100145.00
2022-07-29T09:53:55.271Z,100144.06
2022-07-29T09:56:40.774Z,100140.44
2022-07-29T09:59:12.188Z,100137.34
2022-07-29T10:01:41.752Z,100138.47
2022-07-29T10:04:09.771Z,100139.38
2022-07-29T10:07:03.767Z,100142.03
2022-07-29T10:09:33.229Z,100135.69
2022-07-29T10:12:09.958Z,100141.91
2022-07-29T10:14:38.731Z,100136.63
2022-07-29T10:17:09.421Z,100136.91
2022-07-29T10:19:38.623Z,100136.41
2022-07-29T10:22:08.451Z,100129.19
2022-07-29T10:24:38.285Z,100125.84
2022-07-29T10:27:08.967Z,100127.84
2022-07-29T10:29:37.342Z,100127.31
2022-07-29T10:32:24.523Z,100120.03
2022-07-29T10:35:14.070Z,100125.03
2022-07-29T10:37:58.185Z,100118.03
2022-07-29T10:40:52.202Z,100122.22
2022-07-29T10:46:19.545Z,100119.53
2022-07-29T10:49:09.017Z,100117.47
2022-07-29T10:52:01.710Z,100115.00
2022-07-29T10:54:46.071Z,100107.63
2022-07-29T10:57:16.220Z,100111.75
2022-07-29T10:59:46.345Z,100104.09
2022-07-29T11:02:56.347Z,100093.44
2022-07-29T11:05:31.991Z,100097.69
2022-07-29T11:08:26.118Z,100095.03
2022-07-29T11:11:33.030Z,100090.31
2022-07-29T11:14:03.786Z,100086.00
2022-07-29T11:17:06.496Z,100091.50
2022-07-29T11:19:37.184Z,100090.09
2022-07-29T11:22:12.313Z,100087.91
2022-07-29T11:24:50.101Z,100091.00
2022-07-29T11:27:21.175Z,100097.69
2022-07-29T11:29:55.064Z,100094.88
2022-07-29T11:32:29.203Z,100093.03
2022-07-29T11:35:37.265Z,100091.75
2022-07-29T11:38:28.356Z,100085.22
2022-07-29T11:41:27.948Z,100090.59
2022-07-29T11:43:58.379Z,100088.75
2022-07-29T11:46:47.472Z,100089.28
2022-07-29T11:49:21.924Z,100085.47
2022-07-29T11:51:53.746Z,100087.00
2022-07-29T11:54:28.172Z,100084.97
2022-07-29T11:56:57.023Z,100078.72
2022-07-29T11:59:33.556Z,100078.88
2022-07-29T12:02:32.975Z,100078.22
2022-07-29T12:04:52.203Z,100072.66
2022-07-29T12:07:20.533Z,100074.25
2022-07-29T12:09:57.014Z,100073.78
2022-07-29T12:12:25.604Z,100058.69
2022-07-29T12:14:55.950Z,100064.66
2022-07-29T12:17:32.601Z,100060.56
2022-07-29T12:20:03.915Z,100068.50
2022-07-29T12:22:33.689Z,100061.66
2022-07-29T12:25:30.367Z,100058.38
2022-07-29T12:28:01.423Z,100059.53
2022-07-29T12:30:44.998Z,100054.34
2022-07-29T12:33:18.547Z,100058.97
2022-07-29T12:36:03.523Z,100064.09
2022-07-29T12:38:36.944Z,100063.81
2022-07-29T12:41:06.825Z,100063.69
2022-07-29T12:43:35.034Z,100063.78
2022-07-29T12:46:15.685Z,100061.38
2022-07-29T12:48:45.504Z,100052.06
2022-07-29T12:51:15.541Z,100051.91
2022-07-29T12:53:43.727Z,100055.69
2022-07-29T12:56:41.852Z,100053.25
2022-07-29T12:59:20.433Z,100050.56
2022-07-29T13:01:50.317Z,100041.53
2022-07-29T13:04:31.958Z,100028.78
2022-07-29T13:07:04.675Z,100032.69
2022-07-29T13:09:42.054Z,100036.41
2022-07-29T13:12:14.182Z,100032.19
2022-07-29T13:14:46.148Z,100030.56
2022-07-29T13:17:16.656Z,100040.78
2022-07-29T13:19:46.593Z,100033.94
2022-07-29T13:22:16.460Z,100040.84
2022-07-29T13:24:51.565Z,100043.03
2022-07-29T13:27:22.705Z,100046.41
2022-07-29T13:29:52.365Z,100045.00
2022-07-29T13:32:28.436Z,100052.38
2022-07-29T13:34:57.308Z,100042.78
2022-07-29T13:37:27.348Z,100044.19
2022-07-29T13:40:00.297Z,100040.75
2022-07-29T13:42:29.826Z,100038.78
2022-07-29T13:44:57.812Z,100038.22
2022-07-29T13:47:32.294Z,100043.81
2022-07-29T13:50:01.110Z,100052.06
2022-07-29T13:52:29.452Z,100036.56
2022-07-29T13:54:58.496Z,100034.28
2022-07-29T13:57:26.494Z,100027.88
2022-07-29T13:59:56.109Z,100028.09
2022-07-29T14:02:25.427Z,100025.41
2022-07-29T14:04:54.758Z,100024.13
2022-07-29T14:07:23.322Z,100022.78
2022-07-29T14:09:51.431Z,100025.47
2022-07-29T14:12:19.993Z,100030.94
2022-07-29T14:14:47.876Z,100032.47
2022-07-29T14:17:17.375Z,100033.22
2022-07-29T14:19:45.928Z,100034.38
2022-07-29T14:22:13.843Z,100023.72
2022-07-29T14:24:41.988Z,100020.72
2022-07-29T14:27:10.904Z,100017.94
2022-07-29T14:29:40.296Z,100020.41
2022-07-29T14:32:11.305Z,100016.63
2022-07-29T14:34:41.029Z,100024.94
2022-07-29T14:37:09.483Z,100020.00
2022-07-29T14:39:46.599Z,100024.97
2022-07-29T14:42:16.519Z,100019.34
2022-07-29T14:44:46.062Z,100017.84
2022-07-29T14:47:14.911Z,100013.31
2022-07-29T14:49:44.929Z,100018.19
2022-07-29T14:52:13.005Z,100025.25
2022-07-29T14:54:41.031Z,100022.03
2022-07-29T14:57:09.664Z,100021.03
2022-07-29T14:59:37.786Z,100019.44
2022-07-29T15:02:06.161Z,100017.28
2022-07-29T15:04:34.517Z,100016.41
2022-07-29T15:07:04.805Z,100029.59
2022-07-29T15:09:32.771Z,100019.75
2022-07-29T15:12:05.855Z,100019.03
2022-07-29T15:14:34.606Z,100019.34
2022-07-29T15:17:02.665Z,100021.47
2022-07-29T15:19:33.055Z,100022.91
2022-07-29T15:22:03.147Z,100019.38
2022-07-29T15:24:32.770Z,100024.97
2022-07-29T15:27:00.904Z,100023.34
2022-07-29T15:29:28.918Z,100018.56
2022-07-29T15:31:57.017Z,100018.78
2022-07-29T15:34:25.117Z,100020.41
2022-07-29T15:36:53.904Z,100027.69
2022-07-29T15:39:23.937Z,100022.69
2022-07-29T15:41:52.415Z,100023.34
2022-07-29T15:44:21.081Z,100017.47
2022-07-29T15:47:04.568Z,100023.09
2022-07-29T15:49:47.463Z,100019.59
2022-07-29T15:52:26.225Z,100018.78
2022-07-29T15:54:56.851Z,100022.28
2022-07-29T15:57:28.726Z,100007.81
2022-07-29T16:00:02.598Z,100017.53
2022-07-29T16:02:36.330Z,100008.56
2022-07-29T16:05:05.169Z,100010.41
2022-07-29T16:07:38.173Z,100004.50
2022-07-29T16:10:09.339Z,100005.28
2022-07-29T16:12:37.527Z,100009.19
2022-07-29T16:15:09.885Z,100003.25
2022-07-29T16:17:38.983Z,100007.41
2022-07-29T16:20:08.961Z,99999.81
2022-07-29T16:22:38.711Z,100009.66
2022-07-29T16:25:10.123Z,100015.50
2022-07-29T16:27:38.447Z,100013.94
2022-07-29T16:30:09.682Z,100008.34
2022-07-29T16:32:38.351Z,100007.53
2022-07-29T16:35:08.967Z,100013.09
2022-07-29T16:37:38.448Z,100004.75
2022-07-29T16:40:11.602Z,100004.84
2022-07-29T16:42:47.765Z,100008.06
2022-07-29T16:45:16.731Z,99999.63
2022-07-29T16:47:46.711Z,100008.06
2022-07-29T16:50:14.935Z,100003.63
2022-07-29T16:52:43.324Z,100004.38
2022-07-29T16:55:13.021Z,100009.56
2022-07-29T16:57:42.027Z,100007.56
2022-07-29T17:00:11.637Z,100015.09
2022-07-29T17:02:42.085Z,100013.75
2022-07-29T17:05:12.377Z,100016.38
2022-07-29T17:07:40.954Z,100015.34
2022-07-29T17:10:14.033Z,100022.78
2022-07-29T17:12:42.424Z,100022.84
2022-07-29T17:15:12.944Z,100027.94
2022-07-29T17:17:56.790Z,100026.53
2022-07-29T17:20:27.019Z,100033.22
2022-07-29T17:22:55.789Z,100030.75
2022-07-29T17:25:28.758Z,100033.34
2022-07-29T17:28:01.218Z,100040.53
2022-07-29T17:30:30.108Z,100041.94
2022-07-29T17:32:58.230Z,100047.28
2022-07-29T17:35:44.245Z,100047.66
2022-07-29T17:38:18.871Z,100056.41
2022-07-29T17:40:49.274Z,100064.94
2022-07-29T17:43:17.767Z,100068.09
2022-07-29T17:45:49.604Z,100070.66
2022-07-29T17:48:20.627Z,100069.31
2022-07-29T17:50:51.939Z,100074.75
2022-07-29T17:53:20.270Z,100089.50
2022-07-29T17:55:51.868Z,100089.03
2022-07-29T17:58:20.127Z,100090.03
2022-07-29T18:00:48.636Z,100092.94
2022-07-29T18:03:17.050Z,100101.59
2022-07-29T18:05:45.214Z,100102.13
2022-07-29T18:08:14.307Z,100105.41
2022-07-29T18:10:42.342Z,100112.38
2022-07-29T18:13:12.620Z,100110.13
2022-07-29T18:15:41.261Z,100110.44
2022-07-29T18:18:09.648Z,100118.72
2022-07-29T18:20:37.807Z,100132.06
2022-07-29T18:23:06.707Z,100131.19
2022-07-29T18:25:35.175Z,100139.88
2022-07-29T18:28:03.392Z,100137.97
2022-07-29T18:30:37.176Z,100144.41
2022-07-29T18:33:22.669Z,100149.13
2022-07-29T18:35:52.543Z,100150.63
2022-07-29T18:38:38.600Z,100147.47
2022-07-29T18:41:06.741Z,100155.47
2022-07-29T18:43:34.682Z,100147.75
2022-07-29T18:46:07.828Z,100151.16
2022-07-29T18:48:36.214Z,100152.28
2022-07-29T18:51:09.328Z,100164.50
2022-07-29T18:53:38.129Z,100161.84
2022-07-29T18:56:06.852Z,100165.69
2022-07-29T18:58:36.924Z,100157.31
2022-07-29T19:01:07.957Z,100166.13
2022-07-29T19:03:36.238Z,100167.50
2022-07-29T19:06:04.376Z,100170.28
2022-07-29T19:08:33.444Z,100167.94
2022-07-29T19:11:01.964Z,100172.41
2022-07-29T19:13:30.878Z,100179.69
2022-07-29T19:15:58.865Z,100189.38
2022-07-29T19:18:28.736Z,100192.72
2022-07-29T19:20:56.631Z,100192.72
2022-07-29T19:23:25.528Z,100194.63
2022-07-29T19:25:54.153Z,100206.56
2022-07-29T19:28:27.891Z,100202.47
2022-07-29T19:30:55.767Z,100206.03
2022-07-29T19:33:23.701Z,100207.78
2022-07-29T19:35:55.095Z,100209.47
2022-07-29T19:38:23.509Z,100213.66
2022-07-29T19:40:51.744Z,100225.78
2022-07-29T19:43:50.409Z,100238.88
2022-07-29T19:46:09.170Z,100238.25
2022-07-29T19:48:38.615Z,100257.06
2022-07-29T19:51:08.943Z,100264.47
2022-07-29T19:53:37.373Z,100274.34
2022-07-29T19:56:06.046Z,100276.91
2022-07-29T19:58:37.457Z,100285.59
2022-07-29T20:01:10.017Z,100286.75
2022-07-29T20:03:39.704Z,100283.78
2022-07-29T20:06:09.558Z,100290.16
2022-07-29T20:08:37.550Z,100292.28
2022-07-29T20:11:06.375Z,100294.84
2022-07-29T20:13:35.363Z,100294.16
2022-07-29T20:16:05.717Z,100302.66
2022-07-29T20:18:34.719Z,100300.59
2022-07-29T20:21:03.778Z,100303.44
2022-07-29T20:23:34.598Z,100299.53
2022-07-29T20:26:06.080Z,100294.28
2022-07-29T20:28:37.196Z,100294.59
2022-07-29T20:31:05.331Z,100298.16
2022-07-29T20:33:33.302Z,100303.25
2022-07-29T20:36:01.985Z,100301.19
2022-07-29T20:38:30.622Z,100300.50
2022-07-29T20:40:59.911Z,100310.41
2022-07-29T20:43:28.163Z,100308.44
2022-07-29T20:46:00.441Z,100305.84
2022-07-29T20:48:29.428Z,100313.75
2022-07-29T20:50:57.575Z,100310.25
2022-07-29T20:53:25.469Z,100304.13
2022-07-29T20:55:53.545Z,100313.06
2022-07-29T20:58:22.805Z,100306.91
2022-07-29T21:00:51.534Z,100304.91
2022-07-29T21:03:19.483Z,100306.34
2022-07-29T21:05:47.718Z,100305.66
2022-07-29T21:08:15.713Z,100309.13
2022-07-29T21:10:43.932Z,100312.34
2022-07-29T21:13:12.347Z,100310.09
2022-07-29T21:15:43.996Z,100314.19
2022-07-29T21:18:26.790Z,100315.31
2022-07-29T21:20:55.060Z,100310.69
2022-07-29T21:23:22.981Z,100307.06
2022-07-29T21:25:51.486Z,100311.00
2022-07-29T21:28:29.337Z,100309.31
2022-07-29T21:31:00.347Z,100309.44
2022-07-29T21:33:30.622Z,100312.09
2022-07-29T21:36:20.261Z,100317.13
2022-07-29T21:38:46.935Z,100313.63
2022-07-29T21:41:15.882Z,100314.59
2022-07-29T21:43:43.814Z,100316.69
2022-07-29T21:46:13.175Z,100319.22
2022-07-29T21:48:44.353Z,100318.13
2022-07-29T21:51:12.813Z,100330.78
2022-07-29T21:53:41.063Z,100330.81
2022-07-29T21:56:14.421Z,100332.34
2022-07-29T21:58:42.683Z,100338.09
2022-07-29T22:01:13.407Z,100341.69
2022-07-29T22:03:41.566Z,100346.44
2022-07-29T22:06:11.370Z,100337.91
2022-07-29T22:08:48.043Z,100349.34
2022-07-29T22:11:16.168Z,100353.53
2022-07-29T22:13:44.114Z,100352.53
2022-07-29T22:16:15.067Z,100355.75
2022-07-29T22:18:46.698Z,100352.38
2022-07-29T22:21:14.915Z,100354.59
2022-07-29T22:23:42.838Z,100356.19
2022-07-29T22:26:11.115Z,100356.25
2022-07-29T22:28:39.267Z,100358.72
2022-07-29T22:31:08.875Z,100356.88
2022-07-29T22:33:38.269Z,100362.47
2022-07-29T22:36:06.756Z,100361.84
2022-07-29T22:38:35.009Z,100372.84
2022-07-29T22:41:03.462Z,100369.63
2022-07-29T22:43:31.516Z,100371.16
2022-07-29T22:45:59.449Z,100376.31
2022-07-29T22:48:27.600Z,100367.97
2022-07-29T22:50:57.542Z,100372.91
2022-07-29T22:53:25.378Z,100372.91
2022-07-29T22:55:54.547Z,100373.19
2022-07-29T22:58:22.489Z,100377.66
2022-07-29T23:00:53.500Z,100382.09
2022-07-29T23:03:21.921Z,100379.03
2022-07-29T23:05:53.221Z,100385.41
2022-07-29T23:08:22.475Z,100388.06
2022-07-29T23:10:50.404Z,100386.84
2022-07-29T23:13:18.354Z,100380.69
2022-07-29T23:15:46.622Z,100381.63
2022-07-29T23:18:14.675Z,100383.44
2022-07-29T23:20:43.822Z,100384.25
2022-07-29T23:23:12.246Z,100389.88
2022-07-29T23:25:41.629Z,100394.47
2022-07-29T23:28:11.485Z,100394.66
2022-07-29T23:30:42.411Z,100383.50
2022-07-29T23:33:11.307Z,100385.97
2022-07-29T23:35:39.314Z,100379.25
2022-07-29T23:38:07.429Z,100374.19
2022-07-29T23:40:36.171Z,100379.94
2022-07-29T23:43:08.508Z,100377.13
2022-07-29T23:45:40.006Z,100378.53
2022-07-29T23:48:14.566Z,100374.38
2022-07-29T23:50:42.475Z,100373.69
2022-07-29T23:53:12.092Z,100375.63
2022-07-29T23:55:40.095Z,100376.66
2022-07-29T23:58:09.523Z,100383.81
